Time;durP1;ratioP1;P1;durP2;ratioP2;P2;SDS_P1;SDS_P2;PMS_P1;PMS_P2;Temp;Humidity;BMP_temperature;BMP_pressure;BME280_temperature;BME280_humidity;BME280_pressure;Samples;Min_cycle;Max_cycle;Signal;HPM_P1;HPM_P2
2023/03/20 00:00:07;;;;;;;8.05;3.88;;;7.10;99.90;;;;;;5065764;28;20056;-83
2023/03/20 00:02:54;;;;;;;9.95;3.97;;;7.10;99.90;;;;;;5073093;28;20057;-85
2023/03/20 00:05:40;;;;;;;7.65;4.18;;;7.10;99.90;;;;;;5040414;28;20139;-83
2023/03/20 00:08:27;;;;;;;14.50;6.55;;;7.10;99.90;;;;;;5054124;28;20139;-85
2023/03/20 00:11:35;;;;;;;14.00;5.72;;;7.10;99.90;;;;;;5072357;28;20048;-83
2023/03/20 00:14:23;;;;;;;10.18;4.97;;;7.10;99.90;;;;;;5071415;28;20045;-83
2023/03/20 00:17:16;;;;;;;12.75;6.05;;;7.00;99.90;;;;;;5072997;28;20098;-83
2023/03/20 00:20:03;;;;;;;10.77;4.93;;;7.00;99.90;;;;;;5077043;28;20476;-83
2023/03/20 00:22:49;;;;;;;8.05;4.38;;;6.90;99.90;;;;;;5070646;28;20053;-82
2023/03/20 00:25:38;;;;;;;10.13;4.70;;;6.90;99.90;;;;;;5071728;28;20044;-82
2023/03/20 00:28:31;;;;;;;11.45;5.20;;;6.80;99.90;;;;;;5058226;28;20048;-83
2023/03/20 00:31:26;;;;;;;12.02;5.82;;;6.80;99.90;;;;;;5072771;28;20044;-85
2023/03/20 00:34:16;;;;;;;12.18;5.75;;;6.80;99.90;;;;;;5071609;28;20465;-84
2023/03/20 00:37:02;;;;;;;11.30;5.30;;;6.70;99.90;;;;;;5073147;28;20114;-84
2023/03/20 00:39:48;;;;;;;12.73;5.97;;;6.80;99.90;;;;;;5078070;28;20041;-86
2023/03/20 00:42:35;;;;;;;12.38;5.93;;;6.80;99.90;;;;;;5072582;28;20048;-82
2023/03/20 00:45:22;;;;;;;15.43;5.95;;;6.80;99.90;;;;;;5065466;28;20099;-83
2023/03/20 00:48:15;;;;;;;12.00;5.80;;;6.80;99.90;;;;;;5072518;28;20046;-83
2023/03/20 00:51:01;;;;;;;10.82;5.13;;;6.80;99.90;;;;;;5084283;28;20048;-85
2023/03/20 00:53:47;;;;;;;13.30;5.50;;;6.80;99.90;;;;;;5073006;28;20052;-83
2023/03/20 00:56:44;;;;;;;12.38;5.40;;;6.80;99.90;;;;;;5076852;28;20052;-86
2023/03/20 00:59:35;;;;;;;10.90;5.40;;;6.80;99.90;;;;;;5077455;28;20047;-85
2023/03/20 01:02:25;;;;;;;18.27;6.50;;;6.80;99.90;;;;;;5080513;28;20049;-83
2023/03/20 01:05:11;;;;;;;11.35;4.90;;;6.80;99.90;;;;;;5077839;28;20167;-83
2023/03/20 01:07:58;;;;;;;16.30;5.28;;;6.90;99.90;;;;;;5070961;28;20581;-85
2023/03/20 01:10:45;;;;;;;11.43;4.40;;;6.80;99.90;;;;;;5073523;28;20443;-82
2023/03/20 01:13:32;;;;;;;12.68;4.85;;;6.80;99.90;;;;;;5083751;28;20060;-85
2023/03/20 01:16:24;;;;;;;15.70;5.07;;;6.80;99.90;;;;;;5071594;28;20054;-87
2023/03/20 01:19:12;;;;;;;14.88;5.03;;;6.80;99.90;;;;;;5074940;28;20049;-84
2023/03/20 01:21:59;;;;;;;14.90;5.03;;;6.80;99.90;;;;;;5082295;28;20059;-83
2023/03/20 01:24:46;;;;;;;15.63;5.90;;;6.80;99.90;;;;;;5072124;28;20054;-83
2023/03/20 01:27:32;;;;;;;18.00;4.93;;;6.80;99.90;;;;;;5071070;28;20129;-84
2023/03/20 01:30:24;;;;;;;15.43;4.82;;;6.80;99.90;;;;;;5083234;28;20573;-82
2023/03/20 01:33:47;;;;;;;13.23;5.30;;;6.80;99.90;;;;;;5070801;28;20051;-84
2023/03/20 01:36:33;;;;;;;18.33;5.93;;;6.90;99.90;;;;;;5068820;28;20563;-85
2023/03/20 01:39:23;;;;;;;14.68;5.38;;;6.90;99.90;;;;;;5070011;28;20833;-84
2023/03/20 01:42:13;;;;;;;13.50;6.00;;;6.90;99.90;;;;;;5071532;28;20052;-82
2023/03/20 01:44:59;;;;;;;19.42;5.30;;;6.90;99.90;;;;;;5077073;28;20080;-83
2023/03/20 01:47:46;;;;;;;17.85;5.47;;;6.90;99.90;;;;;;5070151;28;20053;-83
2023/03/20 01:50:33;;;;;;;11.70;4.47;;;6.90;99.90;;;;;;5069710;28;20131;-83
2023/03/20 01:53:27;;;;;;;16.00;5.43;;;6.90;99.90;;;;;;5068486;28;20052;-84
2023/03/20 01:56:16;;;;;;;12.73;5.82;;;6.90;99.90;;;;;;5068261;28;20045;-87
2023/03/20 01:59:08;;;;;;;19.27;7.28;;;7.00;99.90;;;;;;5039716;28;20056;-84
2023/03/20 02:01:56;;;;;;;14.48;5.80;;;7.00;99.90;;;;;;5068977;28;20106;-86
2023/03/20 02:04:45;;;;;;;13.63;5.25;;;7.00;99.90;;;;;;5070168;28;20045;-84
2023/03/20 02:07:33;;;;;;;20.83;6.10;;;7.00;99.90;;;;;;5070334;28;20194;-83
2023/03/20 02:10:20;;;;;;;16.42;5.68;;;7.00;99.90;;;;;;5071504;28;20564;-86
2023/03/20 02:13:06;;;;;;;14.25;6.15;;;7.00;99.90;;;;;;5077206;28;20114;-85
2023/03/20 02:16:01;;;;;;;17.00;6.18;;;7.00;99.90;;;;;;5070349;28;20079;-83
2023/03/20 02:18:50;;;;;;;12.15;5.90;;;7.00;99.90;;;;;;5074672;28;20112;-86
2023/03/20 02:21:57;;;;;;;14.90;6.30;;;7.10;99.90;;;;;;5073228;28;20045;-86
2023/03/20 02:24:54;;;;;;;21.88;7.07;;;7.00;99.90;;;;;;5068663;28;20041;-85
2023/03/20 02:27:55;;;;;;;16.40;6.30;;;7.10;99.90;;;;;;5068331;28;20056;-84
2023/03/20 02:31:13;;;;;;;23.08;6.15;;;7.10;99.90;;;;;;5070676;28;20052;-82
2023/03/20 02:34:14;;;;;;;17.70;8.05;;;7.10;99.90;;;;;;5050396;28;20098;-83
2023/03/20 02:37:19;;;;;;;18.10;7.05;;;7.10;99.90;;;;;;5070246;28;20468;-83
2023/03/20 02:40:25;;;;;;;16.00;6.80;;;7.10;99.90;;;;;;5057895;28;20040;-83
2023/03/20 02:43:20;;;;;;;19.67;8.02;;;7.10;99.90;;;;;;5054767;28;20048;-83
2023/03/20 02:46:19;;;;;;;15.97;6.50;;;7.20;99.90;;;;;;5068977;28;20052;-84
2023/03/20 02:49:24;;;;;;;21.55;6.55;;;7.20;99.90;;;;;;5037720;28;20044;-86
2023/03/20 02:52:19;;;;;;;20.35;6.38;;;7.20;99.90;;;;;;5058033;28;20098;-84
2023/03/20 02:55:32;;;;;;;21.15;8.90;;;7.30;99.90;;;;;;5054253;28;20089;-84
2023/03/20 02:58:35;;;;;;;22.73;7.55;;;7.30;99.90;;;;;;5051202;28;20052;-83
2023/03/20 03:01:41;;;;;;;22.35;7.55;;;7.30;99.90;;;;;;5080443;28;20118;-83
2023/03/20 03:04:34;;;;;;;19.15;6.70;;;7.30;99.90;;;;;;5064589;28;20044;-85
2023/03/20 03:07:25;;;;;;;20.42;7.18;;;7.30;99.90;;;;;;5051349;28;20055;-84
2023/03/20 03:10:18;;;;;;;17.38;7.45;;;7.30;99.90;;;;;;5069846;28;20044;-85
2023/03/20 03:13:10;;;;;;;24.90;7.28;;;7.30;99.90;;;;;;5067416;28;20121;-83
2023/03/20 03:16:03;;;;;;;23.25;7.53;;;7.30;99.90;;;;;;5051987;28;20146;-83
2023/03/20 03:18:58;;;;;;;17.90;7.07;;;7.40;99.90;;;;;;5069230;28;20060;-83
2023/03/20 03:21:46;;;;;;;16.33;6.78;;;7.30;99.90;;;;;;5051504;28;20055;-84
2023/03/20 03:24:35;;;;;;;15.90;6.78;;;7.40;99.90;;;;;;5057521;28;20051;-84
2023/03/20 03:27:30;;;;;;;20.13;7.32;;;7.40;99.90;;;;;;5071665;28;20131;-82
2023/03/20 03:30:19;;;;;;;18.77;7.10;;;7.40;99.90;;;;;;5050098;28;20490;-83
2023/03/20 03:33:18;;;;;;;20.58;6.75;;;7.40;99.90;;;;;;5069143;28;20428;-83
2023/03/20 03:36:29;;;;;;;16.80;6.75;;;7.40;99.90;;;;;;5068916;28;20118;-84
2023/03/20 03:39:26;;;;;;;19.25;7.22;;;7.40;99.90;;;;;;5068709;28;20066;-84
2023/03/20 03:42:21;;;;;;;17.48;7.28;;;7.40;99.90;;;;;;5051648;28;20393;-85
2023/03/20 03:45:26;;;;;;;24.38;8.48;;;7.40;99.90;;;;;;5053614;28;20048;-84
2023/03/20 03:48:21;;;;;;;22.57;8.27;;;7.50;99.90;;;;;;5037410;28;20055;-83
2023/03/20 03:51:15;;;;;;;19.08;8.10;;;7.40;99.90;;;;;;5069221;28;20819;-82
2023/03/20 03:54:12;;;;;;;21.50;7.47;;;7.50;99.90;;;;;;5068005;28;20468;-83
2023/03/20 03:57:01;;;;;;;18.80;7.25;;;7.50;99.90;;;;;;5050568;28;20477;-83
2023/03/20 03:59:50;;;;;;;16.83;6.70;;;7.50;99.90;;;;;;5070438;28;20405;-84
2023/03/20 04:02:37;;;;;;;14.27;6.47;;;7.50;99.90;;;;;;5054194;28;20056;-83
2023/03/20 04:05:30;;;;;;;12.95;6.55;;;7.50;99.90;;;;;;5075327;28;20056;-84
2023/03/20 04:08:16;;;;;;;18.70;6.97;;;7.50;99.90;;;;;;5068585;28;20055;-84
2023/03/20 04:11:03;;;;;;;23.13;7.05;;;7.50;99.90;;;;;;5068528;28;20045;-82
2023/03/20 04:13:50;;;;;;;18.80;6.95;;;7.50;99.90;;;;;;5079931;28;20049;-86
2023/03/20 04:16:36;;;;;;;15.77;6.93;;;7.50;99.90;;;;;;5082453;28;20056;-84
2023/03/20 04:19:22;;;;;;;16.77;6.80;;;7.50;99.90;;;;;;5054020;28;20090;-83
2023/03/20 04:22:08;;;;;;;17.40;7.55;;;7.50;99.90;;;;;;5074477;28;20136;-84
2023/03/20 04:24:54;;;;;;;24.05;7.72;;;7.50;99.90;;;;;;5074175;28;20053;-84
2023/03/20 04:27:40;;;;;;;13.65;6.78;;;7.50;99.90;;;;;;5071648;28;20059;-84
2023/03/20 04:30:26;;;;;;;15.32;7.15;;;7.60;99.90;;;;;;5071695;28;20055;-84
2023/03/20 04:33:12;;;;;;;18.08;6.80;;;7.50;99.90;;;;;;5072775;28;20057;-83
2023/03/20 04:35:59;;;;;;;24.92;7.60;;;7.50;99.90;;;;;;5073549;28;20049;-84
2023/03/20 04:38:45;;;;;;;18.75;8.50;;;7.50;99.90;;;;;;5072418;28;20048;-84
2023/03/20 04:41:31;;;;;;;15.02;5.82;;;7.60;99.90;;;;;;5057065;28;20382;-84
2023/03/20 04:44:17;;;;;;;16.20;7.03;;;7.50;99.90;;;;;;5074778;28;20406;-87
2023/03/20 04:47:03;;;;;;;15.30;7.40;;;7.50;99.90;;;;;;5071618;28;20760;-86
2023/03/20 04:49:49;;;;;;;13.80;7.15;;;7.50;99.90;;;;;;5074077;28;20110;-84
2023/03/20 04:52:35;;;;;;;13.57;7.25;;;7.50;99.90;;;;;;5066348;28;20132;-86
2023/03/20 04:55:22;;;;;;;17.52;8.20;;;7.50;99.90;;;;;;5070678;28;20135;-86
2023/03/20 04:58:08;;;;;;;20.58;8.20;;;7.50;99.90;;;;;;5071870;28;20089;-86
2023/03/20 05:00:54;;;;;;;18.88;8.93;;;7.60;99.90;;;;;;5070747;28;20505;-85
2023/03/20 05:03:40;;;;;;;20.48;9.88;;;7.60;99.90;;;;;;5071824;28;20120;-83
2023/03/20 05:06:27;;;;;;;22.05;9.10;;;7.50;99.90;;;;;;5075818;28;20083;-85
2023/03/20 05:09:14;;;;;;;21.25;10.35;;;7.60;99.90;;;;;;5070713;28;20120;-84
2023/03/20 05:12:01;;;;;;;25.20;10.70;;;7.60;99.90;;;;;;5072335;28;20139;-85
2023/03/20 05:14:47;;;;;;;25.90;9.60;;;7.50;99.90;;;;;;5070528;28;20404;-86
2023/03/20 05:17:33;;;;;;;27.63;11.05;;;7.50;99.90;;;;;;5071340;28;20048;-85
2023/03/20 05:20:19;;;;;;;24.63;10.90;;;7.50;99.90;;;;;;5072575;28;20060;-84
2023/03/20 05:23:05;;;;;;;25.00;11.88;;;7.50;99.90;;;;;;5071994;28;20503;-83
2023/03/20 05:25:51;;;;;;;31.27;13.27;;;7.50;99.90;;;;;;5061684;28;20079;-83
2023/03/20 05:28:37;;;;;;;22.65;12.02;;;7.50;99.90;;;;;;5053910;28;20063;-83
2023/03/20 05:31:23;;;;;;;25.40;12.40;;;7.50;99.90;;;;;;5054434;28;20052;-83
2023/03/20 05:34:09;;;;;;;31.55;11.70;;;7.50;99.90;;;;;;5071064;28;20048;-83
2023/03/20 05:36:56;;;;;;;27.88;12.82;;;7.50;99.90;;;;;;5072092;28;20485;-83
2023/03/20 05:39:42;;;;;;;25.20;13.18;;;7.50;99.90;;;;;;5071649;28;20622;-85
2023/03/20 05:42:28;;;;;;;30.25;11.68;;;7.50;99.90;;;;;;5074633;28;20059;-86
2023/03/20 05:45:14;;;;;;;28.52;14.02;;;7.50;99.90;;;;;;5080591;28;20052;-84
2023/03/20 05:48:00;;;;;;;24.95;12.32;;;7.50;99.90;;;;;;5071808;28;20050;-82
2023/03/20 05:50:46;;;;;;;30.27;12.65;;;7.50;99.90;;;;;;5071287;28;20045;-83
2023/03/20 05:53:32;;;;;;;21.25;10.80;;;7.50;99.90;;;;;;5071904;28;20067;-86
2023/03/20 05:56:18;;;;;;;32.50;12.38;;;7.50;99.90;;;;;;5071258;28;20048;-85
2023/03/20 05:59:04;;;;;;;28.95;12.90;;;7.50;99.90;;;;;;5070323;28;20063;-87
2023/03/20 06:01:51;;;;;;;28.55;12.38;;;7.50;99.90;;;;;;5072609;28;20048;-85
2023/03/20 06:04:37;;;;;;;27.88;12.60;;;7.50;99.90;;;;;;5055768;28;20055;-84
2023/03/20 06:07:23;;;;;;;40.75;14.38;;;7.50;99.90;;;;;;5060937;28;20135;-86
2023/03/20 06:10:10;;;;;;;33.67;12.93;;;7.50;99.90;;;;;;5073333;28;20106;-86
2023/03/20 06:12:59;;;;;;;30.48;11.90;;;7.50;99.90;;;;;;5072861;28;20053;-83
2023/03/20 06:15:45;;;;;;;27.05;12.45;;;7.50;99.90;;;;;;5072955;28;20090;-85
2023/03/20 06:18:31;;;;;;;27.58;12.32;;;7.50;99.90;;;;;;5071713;28;20515;-82
2023/03/20 06:21:17;;;;;;;29.75;14.95;;;7.50;99.90;;;;;;5072022;28;20194;-83
2023/03/20 06:24:04;;;;;;;27.42;12.68;;;7.60;99.90;;;;;;5064107;28;20078;-81
2023/03/20 06:26:50;;;;;;;28.60;13.15;;;7.60;99.90;;;;;;5070270;28;20041;-83
2023/03/20 06:29:36;;;;;;;30.50;13.50;;;7.60;99.90;;;;;;5069555;28;20048;-82
2023/03/20 06:32:23;;;;;;;31.13;13.50;;;7.60;99.90;;;;;;5070568;28;20098;-82
2023/03/20 06:35:11;;;;;;;28.88;13.70;;;7.60;99.90;;;;;;5071550;28;20052;-84
2023/03/20 06:37:57;;;;;;;27.92;13.23;;;7.60;99.90;;;;;;5051739;28;20056;-83
2023/03/20 06:40:44;;;;;;;30.13;13.48;;;7.60;99.90;;;;;;5068637;28;20048;-82
2023/03/20 06:43:30;;;;;;;25.40;14.93;;;7.60;99.90;;;;;;5070913;28;20066;-82
2023/03/20 06:46:16;;;;;;;30.45;13.98;;;7.70;99.90;;;;;;5067715;28;20056;-84
2023/03/20 06:49:02;;;;;;;37.60;14.02;;;7.70;99.90;;;;;;5059502;28;20052;-85
2023/03/20 06:51:49;;;;;;;29.27;13.85;;;7.70;99.90;;;;;;5068900;28;20049;-86
2023/03/20 06:54:35;;;;;;;33.08;14.10;;;7.70;99.90;;;;;;5069458;28;20076;-84
2023/03/20 06:57:21;;;;;;;28.95;14.60;;;7.70;99.90;;;;;;5072288;28;20055;-85
2023/03/20 07:00:09;;;;;;;33.05;15.35;;;7.80;99.90;;;;;;5070185;28;20131;-83
2023/03/20 07:02:55;;;;;;;33.15;15.73;;;7.70;99.90;;;;;;5073253;28;20084;-84
2023/03/20 07:05:42;;;;;;;34.30;15.13;;;7.80;99.90;;;;;;5082296;28;20144;-84
2023/03/20 07:08:28;;;;;;;34.60;15.25;;;7.80;99.90;;;;;;5086199;28;20079;-84
2023/03/20 07:11:14;;;;;;;28.75;13.50;;;7.90;99.90;;;;;;5053855;28;20057;-82
2023/03/20 07:14:00;;;;;;;34.95;14.95;;;7.90;99.90;;;;;;5067425;28;20480;-85
2023/03/20 07:16:47;;;;;;;27.35;13.85;;;7.90;99.90;;;;;;5066894;28;20406;-83
2023/03/20 07:19:33;;;;;;;27.92;13.73;;;8.00;99.90;;;;;;5066927;28;20055;-85
2023/03/20 07:22:25;;;;;;;28.50;14.20;;;7.90;99.90;;;;;;5073743;28;20345;-82
2023/03/20 07:25:11;;;;;;;31.83;13.90;;;7.90;99.90;;;;;;5077541;28;20081;-84
2023/03/20 07:27:58;;;;;;;33.50;14.93;;;7.90;99.90;;;;;;5073870;28;20052;-85
2023/03/20 07:30:44;;;;;;;34.47;14.20;;;7.90;99.90;;;;;;5075263;28;20052;-85
2023/03/20 07:33:30;;;;;;;28.25;13.20;;;7.90;99.90;;;;;;5071336;28;20500;-83
2023/03/20 07:36:16;;;;;;;29.95;13.82;;;8.00;99.90;;;;;;5069400;28;20051;-86
2023/03/20 07:39:03;;;;;;;29.10;13.45;;;8.00;99.90;;;;;;5070659;28;20062;-86
2023/03/20 07:41:49;;;;;;;28.10;14.35;;;8.00;99.90;;;;;;5072189;28;20048;-86
2023/03/20 07:44:35;;;;;;;31.00;14.85;;;8.10;99.90;;;;;;5077507;28;20062;-86
2023/03/20 07:47:21;;;;;;;27.08;12.85;;;8.10;99.90;;;;;;5067995;28;20056;-86
2023/03/20 07:50:07;;;;;;;34.47;14.75;;;8.20;99.90;;;;;;5082541;28;20066;-85
2023/03/20 07:52:53;;;;;;;26.55;13.00;;;8.20;99.90;;;;;;5069597;28;20045;-85
2023/03/20 07:55:39;;;;;;;27.77;12.88;;;8.20;99.90;;;;;;5085029;28;20063;-83
2023/03/20 07:58:26;;;;;;;25.88;12.57;;;8.20;99.90;;;;;;5074210;28;20095;-85
2023/03/20 08:01:12;;;;;;;28.13;12.82;;;8.20;99.90;;;;;;5073624;28;20044;-82
2023/03/20 08:03:58;;;;;;;29.95;13.40;;;8.20;99.90;;;;;;5075311;28;20061;-82
2023/03/20 08:06:44;;;;;;;32.83;14.40;;;8.20;99.90;;;;;;5083698;28;20047;-85
2023/03/20 08:09:30;;;;;;;25.75;13.15;;;8.20;99.90;;;;;;5077865;28;20049;-84
2023/03/20 08:12:16;;;;;;;28.23;13.05;;;8.20;99.90;;;;;;5073577;28;20060;-83
2023/03/20 08:15:03;;;;;;;29.67;13.63;;;8.30;99.90;;;;;;5075257;28;20056;-84
2023/03/20 08:17:49;;;;;;;30.23;13.50;;;8.20;99.90;;;;;;5073356;28;20044;-85
2023/03/20 08:20:35;;;;;;;27.58;14.65;;;8.20;99.90;;;;;;5072105;28;20052;-86
2023/03/20 08:23:21;;;;;;;29.08;12.55;;;8.20;99.90;;;;;;5071553;28;20759;-85
2023/03/20 08:26:07;;;;;;;30.25;14.60;;;8.20;99.90;;;;;;5084700;28;20053;-83
2023/03/20 08:28:53;;;;;;;31.90;12.80;;;8.30;99.90;;;;;;5073266;28;20090;-84
2023/03/20 08:31:40;;;;;;;23.02;12.52;;;8.30;99.90;;;;;;5087172;28;20048;-84
2023/03/20 08:34:27;;;;;;;26.83;12.55;;;8.30;99.90;;;;;;5070995;28;20060;-85
2023/03/20 08:37:14;;;;;;;30.75;13.52;;;8.40;99.90;;;;;;5069249;28;20040;-85
2023/03/20 08:40:00;;;;;;;26.38;12.48;;;8.40;99.90;;;;;;5070308;28;20135;-84
2023/03/20 08:42:46;;;;;;;28.75;12.65;;;8.40;99.90;;;;;;5070281;28;20082;-84
2023/03/20 08:45:33;;;;;;;24.65;12.02;;;8.50;99.90;;;;;;5073239;28;20053;-87
2023/03/20 08:48:19;;;;;;;44.70;14.95;;;8.50;99.90;;;;;;5070115;28;20791;-83
2023/03/20 08:51:06;;;;;;;29.65;11.38;;;8.50;99.90;;;;;;5058731;28;20071;-83
2023/03/20 08:53:52;;;;;;;24.63;12.68;;;8.60;99.90;;;;;;5072178;28;20447;-84
2023/03/20 08:56:38;;;;;;;27.55;12.63;;;8.60;99.90;;;;;;5072815;28;20059;-84
2023/03/20 08:59:24;;;;;;;21.90;11.55;;;8.70;99.90;;;;;;5073742;28;20059;-83
2023/03/20 09:02:11;;;;;;;23.60;11.98;;;8.80;99.90;;;;;;5054381;28;20049;-84
2023/03/20 09:04:57;;;;;;;27.30;12.43;;;8.80;99.90;;;;;;5071883;28;20531;-83
2023/03/20 09:07:44;;;;;;;19.05;11.15;;;8.90;99.90;;;;;;5070847;28;20049;-84
2023/03/20 09:10:30;;;;;;;21.70;11.07;;;9.00;99.90;;;;;;5071309;28;20052;-85
2023/03/20 09:13:16;;;;;;;32.03;12.25;;;9.00;99.90;;;;;;5063295;28;20052;-85
2023/03/20 09:16:02;;;;;;;27.55;11.75;;;9.10;99.90;;;;;;5055127;28;20265;-85
2023/03/20 09:18:48;;;;;;;21.40;11.20;;;9.30;99.90;;;;;;5072508;28;20415;-85
2023/03/20 09:21:34;;;;;;;25.02;10.30;;;9.40;99.90;;;;;;5070743;28;20063;-85
2023/03/20 09:24:20;;;;;;;22.52;9.82;;;9.60;99.90;;;;;;5053836;28;20547;-85
2023/03/20 09:27:06;;;;;;;22.88;10.82;;;9.60;99.90;;;;;;5070940;28;20109;-84
2023/03/20 09:29:52;;;;;;;23.35;10.02;;;9.80;99.90;;;;;;5072632;28;20080;-84
2023/03/20 09:32:38;;;;;;;24.33;9.20;;;9.80;99.90;;;;;;5071903;28;20433;-83
2023/03/20 09:35:24;;;;;;;23.45;11.20;;;10.00;99.90;;;;;;5075014;28;20564;-85
2023/03/20 09:38:11;;;;;;;19.83;9.52;;;10.10;99.90;;;;;;5070420;28;20056;-84
2023/03/20 09:40:59;;;;;;;26.55;9.18;;;10.10;99.90;;;;;;5071516;28;20123;-85
2023/03/20 09:43:59;;;;;;;18.00;9.15;;;10.30;99.90;;;;;;5072282;28;20048;-83
2023/03/20 09:47:00;;;;;;;19.98;8.75;;;10.40;99.90;;;;;;5070195;28;20536;-85
2023/03/20 09:49:49;;;;;;;26.15;10.10;;;10.50;99.90;;;;;;5039637;28;20049;-85
2023/03/20 09:53:07;;;;;;;23.48;8.57;;;10.50;99.90;;;;;;5070774;28;20083;-86
2023/03/20 09:55:57;;;;;;;23.60;8.32;;;10.60;99.90;;;;;;5053999;28;20092;-83
2023/03/20 09:58:50;;;;;;;22.50;8.82;;;10.70;99.90;;;;;;5060042;28;20087;-83
2023/03/20 10:01:49;;;;;;;23.00;8.55;;;10.80;99.90;;;;;;5073212;28;20052;-85
2023/03/20 10:04:37;;;;;;;20.80;9.45;;;10.80;99.90;;;;;;5054838;28;20592;-85
2023/03/20 10:07:24;;;;;;;20.42;9.23;;;10.70;99.90;;;;;;5052304;28;20061;-84
2023/03/20 10:10:15;;;;;;;21.88;9.65;;;10.80;99.90;;;;;;5070040;28;20044;-84
2023/03/20 10:13:32;;;;;;;22.08;8.30;;;10.70;99.90;;;;;;5069839;28;20463;-83
2023/03/20 10:16:45;;;;;;;20.45;8.60;;;10.70;99.90;;;;;;5052345;28;20527;-83
2023/03/20 10:19:52;;;;;;;26.65;8.88;;;10.60;99.90;;;;;;5077129;28;20056;-84
2023/03/20 10:22:49;;;;;;;16.52;7.22;;;10.70;99.90;;;;;;5070554;28;20045;-84
2023/03/20 10:25:48;;;;;;;24.45;8.25;;;10.80;99.90;;;;;;5069601;28;20047;-84
2023/03/20 10:28:50;;;;;;;17.63;7.47;;;10.70;99.90;;;;;;5071396;28;20052;-85
2023/03/20 10:32:16;;;;;;;17.98;9.10;;;10.70;99.90;;;;;;5070864;28;20866;-82
2023/03/20 10:35:27;;;;;;;21.55;9.38;;;10.50;99.90;;;;;;5051210;28;20106;-83
2023/03/20 10:38:39;;;;;;;18.88;8.13;;;10.40;99.90;;;;;;5070726;28;20045;-82
2023/03/20 10:41:33;;;;;;;19.67;8.05;;;10.30;99.90;;;;;;5043830;28;20056;-83
2023/03/20 10:44:36;;;;;;;20.92;7.97;;;10.30;99.90;;;;;;5069580;28;20052;-83
2023/03/20 10:47:27;;;;;;;18.88;7.57;;;10.10;99.90;;;;;;5075128;28;20052;-82
2023/03/20 10:50:18;;;;;;;18.15;8.60;;;10.00;99.90;;;;;;5069139;28;20060;-82
2023/03/20 10:53:06;;;;;;;24.92;8.68;;;9.90;99.90;;;;;;5069188;28;20110;-84
2023/03/20 10:55:57;;;;;;;19.73;8.00;;;9.80;99.90;;;;;;5070025;28;20060;-81
2023/03/20 10:58:47;;;;;;;22.63;8.18;;;9.80;99.90;;;;;;5068472;28;20056;-85
2023/03/20 11:01:33;;;;;;;21.33;8.65;;;9.80;99.90;;;;;;5069490;28;20048;-85
2023/03/20 11:04:19;;;;;;;24.38;9.23;;;9.80;99.90;;;;;;5069278;28;20139;-85
2023/03/20 11:07:26;;;;;;;24.90;9.43;;;9.60;99.90;;;;;;5073449;28;20059;-86
2023/03/20 11:10:15;;;;;;;25.73;9.63;;;9.60;99.90;;;;;;5076743;28;20230;-83
2023/03/20 11:13:26;;;;;;;20.65;8.20;;;9.60;99.90;;;;;;5052851;28;20079;-83
2023/03/20 11:16:18;;;;;;;21.65;8.77;;;9.60;99.90;;;;;;5069090;28;20048;-83
2023/03/20 11:19:07;;;;;;;19.95;6.45;;;9.70;99.90;;;;;;5070271;28;20088;-84
2023/03/20 11:21:56;;;;;;;19.85;6.80;;;9.70;99.90;;;;;;5070420;28;20098;-84
2023/03/20 11:24:50;;;;;;;13.25;4.20;;;9.60;99.90;;;;;;5067927;28;20094;-82
2023/03/20 11:27:36;;;;;;;16.00;4.93;;;9.50;99.90;;;;;;5069354;28;20044;-82
2023/03/20 11:30:23;;;;;;;17.17;4.85;;;9.50;99.90;;;;;;5073013;28;20493;-84
2023/03/20 11:33:10;;;;;;;16.60;5.63;;;9.50;99.90;;;;;;5077120;28;20110;-83
2023/03/20 11:35:57;;;;;;;16.92;5.55;;;9.50;99.90;;;;;;5075332;28;20052;-82
2023/03/20 11:38:45;;;;;;;12.65;4.75;;;9.50;99.90;;;;;;5074967;28;20053;-84
2023/03/20 11:41:32;;;;;;;18.30;5.70;;;9.40;99.90;;;;;;5075642;28;20044;-84
2023/03/20 11:44:35;;;;;;;17.05;6.63;;;9.30;99.90;;;;;;5075669;28;20048;-83
2023/03/20 11:47:25;;;;;;;13.88;6.43;;;9.20;99.90;;;;;;5056793;28;20094;-83
2023/03/20 11:50:24;;;;;;;17.00;7.88;;;9.20;99.90;;;;;;5077314;28;20048;-84
2023/03/20 11:53:31;;;;;;;22.95;7.60;;;9.20;99.90;;;;;;5075550;28;20135;-86
2023/03/20 11:56:23;;;;;;;25.00;9.15;;;9.20;99.90;;;;;;5075789;28;20059;-85
2023/03/20 11:59:09;;;;;;;23.65;8.75;;;9.20;99.90;;;;;;5076023;28;20459;-86
2023/03/20 12:01:57;;;;;;;20.77;8.85;;;9.10;99.90;;;;;;5078771;28;20052;-83
2023/03/20 12:04:46;;;;;;;18.27;7.82;;;9.10;99.90;;;;;;5077587;28;20052;-86
2023/03/20 12:07:35;;;;;;;20.60;8.25;;;9.00;99.90;;;;;;5060752;28;20049;-84
2023/03/20 12:10:21;;;;;;;24.45;9.10;;;9.00;99.90;;;;;;5061925;28;20468;-83
2023/03/20 12:13:25;;;;;;;23.38;11.52;;;8.90;99.90;;;;;;5080596;28;20048;-83
2023/03/20 12:16:16;;;;;;;26.45;10.98;;;8.90;99.90;;;;;;5079182;28;20105;-84
2023/03/20 12:19:11;;;;;;;23.08;11.43;;;8.90;99.90;;;;;;5055555;28;20044;-85
2023/03/20 12:22:26;;;;;;;21.75;12.30;;;8.90;99.90;;;;;;5079121;28;20044;-84
2023/03/20 12:25:18;;;;;;;23.05;12.13;;;8.90;99.90;;;;;;5058923;28;20193;-83
2023/03/20 12:28:23;;;;;;;22.10;12.75;;;8.80;99.90;;;;;;5077546;28;20113;-82
2023/03/20 12:31:18;;;;;;;25.70;11.87;;;8.80;99.90;;;;;;5074489;28;20072;-82
2023/03/20 12:34:19;;;;;;;17.95;10.77;;;8.70;99.90;;;;;;5075071;28;20512;-83
2023/03/20 12:37:10;;;;;;;18.38;10.77;;;8.80;99.90;;;;;;5075366;28;20105;-84
2023/03/20 12:39:59;;;;;;;24.67;11.60;;;8.80;99.90;;;;;;5075049;28;20044;-86
2023/03/20 12:43:14;;;;;;;23.70;12.45;;;8.70;99.90;;;;;;5073009;28;20045;-86
2023/03/20 12:46:01;;;;;;;22.70;11.27;;;8.70;99.90;;;;;;5071348;28;20075;-85
2023/03/20 12:49:05;;;;;;;20.35;11.93;;;8.70;99.90;;;;;;5072341;28;20140;-85
2023/03/20 12:51:57;;;;;;;19.00;11.15;;;8.70;99.90;;;;;;5054046;28;20044;-85
2023/03/20 12:55:31;;;;;;;15.98;10.75;;;8.60;99.90;;;;;;5072045;28;20052;-84
2023/03/20 12:58:23;;;;;;;15.98;10.55;;;8.70;99.90;;;;;;4996374;28;20044;-86
2023/03/20 13:01:24;;;;;;;21.75;11.35;;;8.60;99.90;;;;;;5077599;28;20059;-84
2023/03/20 13:04:39;;;;;;;15.88;10.20;;;8.60;99.90;;;;;;5053991;28;20102;-83
2023/03/20 13:07:51;;;;;;;12.85;9.25;;;8.70;99.90;;;;;;5040865;28;20106;-83
2023/03/20 13:11:08;;;;;;;16.05;9.80;;;8.70;99.90;;;;;;5054259;28;20052;-83
2023/03/20 13:14:01;;;;;;;17.02;9.43;;;8.70;99.90;;;;;;5057111;28;20486;-84
2023/03/20 13:16:58;;;;;;;16.70;10.23;;;8.60;99.90;;;;;;5072371;28;20045;-83
2023/03/20 13:19:54;;;;;;;17.83;11.30;;;8.60;99.90;;;;;;5026492;28;20448;-84
2023/03/20 13:22:43;;;;;;;;;;;8.60;99.90;;;;;;5072822;28;20060;-83
2023/03/20 13:25:32;;;;;;;20.23;11.10;;;8.60;99.90;;;;;;5054945;28;20003;-86
2023/03/20 13:28:34;;;;;;;18.13;11.90;;;8.60;99.90;;;;;;5071562;28;20520;-82
2023/03/20 13:31:42;;;;;;;19.58;11.63;;;8.60;99.90;;;;;;5072606;28;20048;-86
2023/03/20 13:34:31;;;;;;;18.10;10.95;;;8.60;99.90;;;;;;5073895;28;20493;-85
2023/03/20 13:37:39;;;;;;;18.25;10.68;;;8.70;99.90;;;;;;5061872;28;20156;-85
2023/03/20 13:40:34;;;;;;;16.13;10.82;;;8.70;99.90;;;;;;5074417;28;20141;-85
2023/03/20 13:43:20;;;;;;;15.13;9.70;;;8.70;99.90;;;;;;5070945;28;20086;-85
2023/03/20 13:46:13;;;;;;;16.00;10.10;;;8.70;99.90;;;;;;5071846;28;20052;-85
2023/03/20 13:49:24;;;;;;;14.90;9.77;;;8.70;99.90;;;;;;5072492;28;20048;-84
2023/03/20 13:52:20;;;;;;;15.43;10.27;;;8.80;99.90;;;;;;5076960;28;20040;-87
2023/03/20 13:55:36;;;;;;;16.77;10.25;;;8.80;99.90;;;;;;5074157;28;20067;-83
2023/03/20 13:58:30;;;;;;;17.08;11.07;;;8.80;99.90;;;;;;5056498;28;20503;-84
2023/03/20 14:01:39;;;;;;;15.50;10.20;;;8.90;99.90;;;;;;5077765;28;20048;-87
2023/03/20 14:04:26;;;;;;;17.63;9.90;;;8.80;99.90;;;;;;5074862;28;20051;-87
2023/03/20 14:07:37;;;;;;;15.27;9.98;;;8.80;99.90;;;;;;5072471;28;20053;-84
2023/03/20 14:10:23;;;;;;;13.93;8.68;;;8.80;99.90;;;;;;5071644;28;20099;-85
2023/03/20 14:13:17;;;;;;;14.48;9.43;;;8.80;99.90;;;;;;5072704;28;20095;-84
2023/03/20 14:16:08;;;;;;;13.07;9.27;;;8.80;99.90;;;;;;5076531;28;20134;-84
2023/03/20 14:19:14;;;;;;;15.05;10.27;;;8.80;99.90;;;;;;5071507;28;20048;-88
2023/03/20 14:22:00;;;;;;;13.88;9.15;;;8.80;99.90;;;;;;5070031;28;20045;-84
2023/03/20 14:24:56;;;;;;;14.50;9.02;;;8.80;99.90;;;;;;5056191;28;20101;-86
2023/03/20 14:27:57;;;;;;;13.30;9.15;;;8.80;99.90;;;;;;5069457;28;20060;-84
2023/03/20 14:31:09;;;;;;;13.35;9.80;;;8.70;99.90;;;;;;5065163;28;20052;-85
2023/03/20 14:34:20;;;;;;;13.85;8.70;;;8.80;99.90;;;;;;5069934;28;20044;-84
2023/03/20 14:37:25;;;;;;;16.05;9.25;;;8.70;99.90;;;;;;5071173;28;20135;-86
2023/03/20 14:40:22;;;;;;;14.07;8.65;;;8.80;99.90;;;;;;5064658;28;20041;-86
2023/03/20 14:43:36;;;;;;;14.77;9.60;;;8.80;99.90;;;;;;5069960;28;20075;-84
2023/03/20 14:46:44;;;;;;;13.07;8.88;;;8.80;99.90;;;;;;5038364;28;20052;-85
2023/03/20 14:49:51;;;;;;;14.80;10.30;;;8.80;99.90;;;;;;5038211;28;20091;-85